sensor_id;sensor_type;location;lat;lon;timestamp;P1;durP1;ratioP1;P2;durP2;ratioP2
4078;SDS011;2054;47.858;11.156;2023-06-10T02:46:55;10.05;;;8.43;;
4078;SDS011;2054;47.858;11.156;2023-06-10T02:49:39;8.43;;;7.53;;
4078;SDS011;2054;47.858;11.156;2023-06-10T02:52:26;11.48;;;8.75;;
4078;SDS011;2054;47.858;11.156;2023-06-10T02:55:07;8.48;;;7.57;;
4078;SDS011;2054;47.858;11.156;2023-06-10T02:57:40;9.77;;;8.63;;
4078;SDS011;2054;47.858;11.156;2023-06-10T03:00:08;9.75;;;8.38;;
4078;SDS011;2054;47.858;11.156;2023-06-10T03:02:38;10.50;;;8.82;;
4078;SDS011;2054;47.858;11.156;2023-06-10T03:05:05;9.00;;;7.97;;
4078;SDS011;2054;47.858;11.156;2023-06-10T03:07:35;9.27;;;8.25;;
4078;SDS011;2054;47.858;11.156;2023-06-10T03:10:03;8.82;;;7.93;;
4078;SDS011;2054;47.858;11.156;2023-06-10T03:12:30;9.68;;;8.68;;
4078;SDS011;2054;47.858;11.156;2023-06-10T03:14:57;12.07;;;9.10;;
4078;SDS011;2054;47.858;11.156;2023-06-10T03:17:25;9.75;;;8.73;;
4078;SDS011;2054;47.858;11.156;2023-06-10T03:19:53;10.13;;;8.48;;
4078;SDS011;2054;47.858;11.156;2023-06-10T03:22:21;8.82;;;7.70;;
4078;SDS011;2054;47.858;11.156;2023-06-10T03:24:48;10.85;;;8.75;;
4078;SDS011;2054;47.858;11.156;2023-06-10T03:27:16;10.48;;;8.23;;
4078;SDS011;2054;47.858;11.156;2023-06-10T03:29:43;10.30;;;8.77;;
4078;SDS011;2054;47.858;11.156;2023-06-10T03:32:11;9.82;;;8.82;;
4078;SDS011;2054;47.858;11.156;2023-06-10T03:34:38;10.57;;;8.60;;
4078;SDS011;2054;47.858;11.156;2023-06-10T03:37:06;9.70;;;8.70;;
4078;SDS011;2054;47.858;11.156;2023-06-10T03:39:34;11.52;;;9.30;;
4078;SDS011;2054;47.858;11.156;2023-06-10T03:42:01;9.95;;;8.63;;
4078;SDS011;2054;47.858;11.156;2023-06-10T03:44:28;10.18;;;8.35;;
4078;SDS011;2054;47.858;11.156;2023-06-10T03:46:56;10.98;;;9.50;;
4078;SDS011;2054;47.858;11.156;2023-06-10T03:49:24;9.45;;;8.32;;
4078;SDS011;2054;47.858;11.156;2023-06-10T03:51:54;10.68;;;8.40;;
4078;SDS011;2054;47.858;11.156;2023-06-10T03:54:23;10.52;;;8.30;;
4078;SDS011;2054;47.858;11.156;2023-06-10T03:56:50;9.07;;;7.85;;
4078;SDS011;2054;47.858;11.156;2023-06-10T03:59:18;9.65;;;8.27;;
4078;SDS011;2054;47.858;11.156;2023-06-10T04:01:45;9.98;;;8.57;;
4078;SDS011;2054;47.858;11.156;2023-06-10T04:04:13;13.52;;;8.50;;
4078;SDS011;2054;47.858;11.156;2023-06-10T04:06:42;12.23;;;9.27;;
4078;SDS011;2054;47.858;11.156;2023-06-10T04:09:10;9.68;;;8.68;;
4078;SDS011;2054;47.858;11.156;2023-06-10T04:11:39;9.38;;;8.38;;
4078;SDS011;2054;47.858;11.156;2023-06-10T04:14:06;9.02;;;8.02;;
4078;SDS011;2054;47.858;11.156;2023-06-10T04:16:33;9.85;;;8.85;;
4078;SDS011;2054;47.858;11.156;2023-06-10T04:19:01;9.93;;;8.07;;
4078;SDS011;2054;47.858;11.156;2023-06-10T04:21:28;9.60;;;8.60;;
4078;SDS011;2054;47.858;11.156;2023-06-10T04:23:56;11.07;;;8.35;;
4078;SDS011;2054;47.858;11.156;2023-06-10T04:26:23;9.60;;;8.50;;
4078;SDS011;2054;47.858;11.156;2023-06-10T04:28:52;8.98;;;7.72;;
4078;SDS011;2054;47.858;11.156;2023-06-10T04:31:19;9.02;;;7.90;;
4078;SDS011;2054;47.858;11.156;2023-06-10T04:33:47;10.20;;;8.05;;
4078;SDS011;2054;47.858;11.156;2023-06-10T04:36:14;9.32;;;7.97;;
4078;SDS011;2054;47.858;11.156;2023-06-10T04:38:41;8.65;;;7.72;;
4078;SDS011;2054;47.858;11.156;2023-06-10T04:41:09;11.45;;;8.63;;
4078;SDS011;2054;47.858;11.156;2023-06-10T04:43:36;10.43;;;8.20;;
4078;SDS011;2054;47.858;11.156;2023-06-10T04:46:05;11.65;;;8.60;;
4078;SDS011;2054;47.858;11.156;2023-06-10T04:48:32;10.23;;;8.27;;
4078;SDS011;2054;47.858;11.156;2023-06-10T04:51:01;8.90;;;8.02;;
4078;SDS011;2054;47.858;11.156;2023-06-10T04:53:28;9.48;;;7.93;;
4078;SDS011;2054;47.858;11.156;2023-06-10T04:55:56;9.02;;;7.70;;
4078;SDS011;2054;47.858;11.156;2023-06-10T04:58:23;11.35;;;8.70;;
4078;SDS011;2054;47.858;11.156;2023-06-10T05:00:50;9.65;;;8.52;;
4078;SDS011;2054;47.858;11.156;2023-06-10T05:03:19;9.60;;;8.60;;
4078;SDS011;2054;47.858;11.156;2023-06-10T05:05:46;10.77;;;7.72;;
4078;SDS011;2054;47.858;11.156;2023-06-10T05:08:14;8.50;;;7.60;;
4078;SDS011;2054;47.858;11.156;2023-06-10T05:10:41;10.40;;;8.77;;
4078;SDS011;2054;47.858;11.156;2023-06-10T05:13:08;9.35;;;8.43;;
4078;SDS011;2054;47.858;11.156;2023-06-10T05:15:35;10.68;;;8.23;;
4078;SDS011;2054;47.858;11.156;2023-06-10T05:18:03;10.13;;;9.10;;
4078;SDS011;2054;47.858;11.156;2023-06-10T05:20:31;11.88;;;8.60;;
4078;SDS011;2054;47.858;11.156;2023-06-10T05:22:59;10.65;;;9.40;;
4078;SDS011;2054;47.858;11.156;2023-06-10T05:25:26;11.50;;;10.30;;
4078;SDS011;2054;47.858;11.156;2023-06-10T05:27:53;10.57;;;9.48;;
4078;SDS011;2054;47.858;11.156;2023-06-10T05:30:21;10.40;;;9.25;;
4078;SDS011;2054;47.858;11.156;2023-06-10T05:32:49;13.43;;;9.98;;
4078;SDS011;2054;47.858;11.156;2023-06-10T05:35:17;10.77;;;9.65;;
4078;SDS011;2054;47.858;11.156;2023-06-10T05:37:46;12.70;;;9.77;;
4078;SDS011;2054;47.858;11.156;2023-06-10T05:40:13;11.00;;;9.75;;
4078;SDS011;2054;47.858;11.156;2023-06-10T05:42:41;11.75;;;9.30;;
4078;SDS011;2054;47.858;11.156;2023-06-10T05:45:08;10.57;;;9.00;;
4078;SDS011;2054;47.858;11.156;2023-06-10T05:47:36;10.93;;;9.60;;
4078;SDS011;2054;47.858;11.156;2023-06-10T05:50:04;10.52;;;8.85;;
4078;SDS011;2054;47.858;11.156;2023-06-10T05:52:32;11.35;;;9.50;;
4078;SDS011;2054;47.858;11.156;2023-06-10T05:55:01;11.88;;;9.00;;
4078;SDS011;2054;47.858;11.156;2023-06-10T05:57:28;12.95;;;10.02;;
4078;SDS011;2054;47.858;11.156;2023-06-10T05:59:55;13.65;;;9.68;;
4078;SDS011;2054;47.858;11.156;2023-06-10T06:02:22;13.25;;;10.40;;
4078;SDS011;2054;47.858;11.156;2023-06-10T06:04:50;11.10;;;9.88;;
4078;SDS011;2054;47.858;11.156;2023-06-10T06:07:17;11.75;;;10.50;;
4078;SDS011;2054;47.858;11.156;2023-06-10T06:09:45;12.82;;;10.35;;
4078;SDS011;2054;47.858;11.156;2023-06-10T06:12:14;13.07;;;10.80;;
4078;SDS011;2054;47.858;11.156;2023-06-10T06:14:41;12.48;;;10.95;;
4078;SDS011;2054;47.858;11.156;2023-06-10T06:17:10;14.77;;;11.15;;
4078;SDS011;2054;47.858;11.156;2023-06-10T06:19:37;12.15;;;10.70;;
4078;SDS011;2054;47.858;11.156;2023-06-10T06:22:05;11.70;;;10.48;;
4078;SDS011;2054;47.858;11.156;2023-06-10T06:24:32;13.07;;;10.85;;
4078;SDS011;2054;47.858;11.156;2023-06-10T06:26:59;14.00;;;10.77;;
4078;SDS011;2054;47.858;11.156;2023-06-10T06:29:28;11.77;;;10.32;;
4078;SDS011;2054;47.858;11.156;2023-06-10T06:31:56;13.38;;;10.82;;
4078;SDS011;2054;47.858;11.156;2023-06-10T06:34:23;12.07;;;10.88;;
4078;SDS011;2054;47.858;11.156;2023-06-10T06:36:50;12.82;;;11.00;;
4078;SDS011;2054;47.858;11.156;2023-06-10T06:39:18;13.70;;;10.48;;
4078;SDS011;2054;47.858;11.156;2023-06-10T06:41:45;11.75;;;10.48;;
4078;SDS011;2054;47.858;11.156;2023-06-10T06:44:12;12.77;;;11.05;;
4078;SDS011;2054;47.858;11.156;2023-06-10T06:46:41;11.75;;;10.38;;
4078;SDS011;2054;47.858;11.156;2023-06-10T06:49:08;12.80;;;10.55;;
4078;SDS011;2054;47.858;11.156;2023-06-10T06:51:35;12.13;;;10.88;;
4078;SDS011;2054;47.858;11.156;2023-06-10T06:54:03;11.98;;;10.48;;
4078;SDS011;2054;47.858;11.156;2023-06-10T06:56:30;14.52;;;10.77;;
4078;SDS011;2054;47.858;11.156;2023-06-10T06:58:58;13.68;;;10.30;;
4078;SDS011;2054;47.858;11.156;2023-06-10T07:01:25;12.00;;;10.40;;
4078;SDS011;2054;47.858;11.156;2023-06-10T07:03:54;12.50;;;11.20;;
4078;SDS011;2054;47.858;11.156;2023-06-10T07:06:21;13.45;;;11.73;;
4078;SDS011;2054;47.858;11.156;2023-06-10T07:08:48;14.88;;;10.57;;
4078;SDS011;2054;47.858;11.156;2023-06-10T07:11:16;14.05;;;11.23;;
4078;SDS011;2054;47.858;11.156;2023-06-10T07:13:43;12.63;;;11.15;;
4078;SDS011;2054;47.858;11.156;2023-06-10T07:16:11;13.15;;;10.77;;
4078;SDS011;2054;47.858;11.156;2023-06-10T07:18:38;14.60;;;10.32;;
4078;SDS011;2054;47.858;11.156;2023-06-10T07:21:06;14.00;;;11.77;;
4078;SDS011;2054;47.858;11.156;2023-06-10T07:23:34;14.48;;;10.88;;
4078;SDS011;2054;47.858;11.156;2023-06-10T07:26:01;13.40;;;11.02;;
4078;SDS011;2054;47.858;11.156;2023-06-10T07:28:28;12.23;;;10.80;;
4078;SDS011;2054;47.858;11.156;2023-06-10T07:30:55;12.25;;;10.65;;
4078;SDS011;2054;47.858;11.156;2023-06-10T07:33:23;10.40;;;9.30;;
4078;SDS011;2054;47.858;11.156;2023-06-10T07:35:50;13.80;;;10.60;;
4078;SDS011;2054;47.858;11.156;2023-06-10T07:38:19;11.18;;;10.00;;
4078;SDS011;2054;47.858;11.156;2023-06-10T07:40:46;11.60;;;10.40;;
4078;SDS011;2054;47.858;11.156;2023-06-10T07:43:14;12.98;;;10.45;;
4078;SDS011;2054;47.858;11.156;2023-06-10T07:45:41;11.50;;;10.23;;
4078;SDS011;2054;47.858;11.156;2023-06-10T07:48:08;13.13;;;9.80;;
4078;SDS011;2054;47.858;11.156;2023-06-10T07:50:35;9.63;;;8.60;;
4078;SDS011;2054;47.858;11.156;2023-06-10T07:53:03;10.65;;;8.05;;
4078;SDS011;2054;47.858;11.156;2023-06-10T07:55:33;8.18;;;6.70;;
4078;SDS011;2054;47.858;11.156;2023-06-10T07:58:04;7.22;;;6.53;;
4078;SDS011;2054;47.858;11.156;2023-06-10T08:00:32;6.13;;;5.53;;
4078;SDS011;2054;47.858;11.156;2023-06-10T08:02:59;7.60;;;6.13;;
4078;SDS011;2054;47.858;11.156;2023-06-10T08:05:26;10.13;;;6.40;;
4078;SDS011;2054;47.858;11.156;2023-06-10T08:07:54;9.13;;;6.57;;
4078;SDS011;2054;47.858;11.156;2023-06-10T08:10:21;8.07;;;6.40;;
4078;SDS011;2054;47.858;11.156;2023-06-10T08:12:50;7.90;;;6.40;;
4078;SDS011;2054;47.858;11.156;2023-06-10T08:15:17;7.53;;;6.00;;
4078;SDS011;2054;47.858;11.156;2023-06-10T08:17:44;8.15;;;6.82;;
4078;SDS011;2054;47.858;11.156;2023-06-10T08:20:12;7.25;;;6.47;;
4078;SDS011;2054;47.858;11.156;2023-06-10T08:22:39;6.88;;;5.90;;
4078;SDS011;2054;47.858;11.156;2023-06-10T08:25:06;7.97;;;6.20;;
4078;SDS011;2054;47.858;11.156;2023-06-10T08:27:34;7.15;;;6.45;;
4078;SDS011;2054;47.858;11.156;2023-06-10T08:30:03;7.22;;;6.53;;
4078;SDS011;2054;47.858;11.156;2023-06-10T08:32:30;6.90;;;6.10;;
4078;SDS011;2054;47.858;11.156;2023-06-10T08:34:58;9.20;;;7.90;;
4078;SDS011;2054;47.858;11.156;2023-06-10T08:37:25;9.00;;;8.10;;
4078;SDS011;2054;47.858;11.156;2023-06-10T08:39:52;10.25;;;8.55;;
4078;SDS011;2054;47.858;11.156;2023-06-10T08:42:21;9.65;;;8.40;;
4078;SDS011;2054;47.858;11.156;2023-06-10T08:44:50;9.00;;;8.10;;
4078;SDS011;2054;47.858;11.156;2023-06-10T08:47:22;9.05;;;7.70;;
4078;SDS011;2054;47.858;11.156;2023-06-10T08:49:49;9.60;;;8.13;;
4078;SDS011;2054;47.858;11.156;2023-06-10T08:52:18;10.20;;;7.43;;
4078;SDS011;2054;47.858;11.156;2023-06-10T08:54:47;8.30;;;7.30;;
4078;SDS011;2054;47.858;11.156;2023-06-10T08:57:16;9.05;;;7.35;;
4078;SDS011;2054;47.858;11.156;2023-06-10T08:59:45;8.55;;;7.65;;
4078;SDS011;2054;47.858;11.156;2023-06-10T09:02:13;7.75;;;7.03;;
4078;SDS011;2054;47.858;11.156;2023-06-10T09:04:46;7.85;;;7.07;;
4078;SDS011;2054;47.858;11.156;2023-06-10T09:07:15;7.97;;;5.97;;
4078;SDS011;2054;47.858;11.156;2023-06-10T09:09:42;6.47;;;5.88;;
4078;SDS011;2054;47.858;11.156;2023-06-10T09:12:10;6.82;;;6.15;;
4078;SDS011;2054;47.858;11.156;2023-06-10T09:14:38;6.10;;;5.50;;
4078;SDS011;2054;47.858;11.156;2023-06-10T09:17:06;6.82;;;6.10;;
4078;SDS011;2054;47.858;11.156;2023-06-10T09:19:33;6.53;;;5.60;;
4078;SDS011;2054;47.858;11.156;2023-06-10T09:22:04;6.45;;;5.85;;
4078;SDS011;2054;47.858;11.156;2023-06-10T09:24:32;7.18;;;5.40;;
4078;SDS011;2054;47.858;11.156;2023-06-10T09:27:03;5.93;;;5.32;;
4078;SDS011;2054;47.858;11.156;2023-06-10T09:29:31;6.60;;;5.80;;
4078;SDS011;2054;47.858;11.156;2023-06-10T09:32:00;6.60;;;6.00;;
4078;SDS011;2054;47.858;11.156;2023-06-10T09:34:28;6.78;;;5.68;;
4078;SDS011;2054;47.858;11.156;2023-06-10T09:36:55;6.75;;;5.90;;
4078;SDS011;2054;47.858;11.156;2023-06-10T09:39:24;6.30;;;5.70;;
4078;SDS011;2054;47.858;11.156;2023-06-10T09:41:52;6.20;;;5.60;;
4078;SDS011;2054;47.858;11.156;2023-06-10T09:44:20;8.70;;;5.72;;
4078;SDS011;2054;47.858;11.156;2023-06-10T09:46:49;6.47;;;5.88;;
4078;SDS011;2054;47.858;11.156;2023-06-10T09:49:18;8.95;;;5.85;;
4078;SDS011;2054;47.858;11.156;2023-06-10T09:51:49;6.68;;;6.07;;
4078;SDS011;2054;47.858;11.156;2023-06-10T09:54:17;6.85;;;6.25;;
4078;SDS011;2054;47.858;11.156;2023-06-10T09:56:47;6.72;;;6.03;;
4078;SDS011;2054;47.858;11.156;2023-06-10T09:59:15;5.90;;;5.40;;
4078;SDS011;2054;47.858;11.156;2023-06-10T10:01:42;6.93;;;6.13;;
4078;SDS011;2054;47.858;11.156;2023-06-10T10:04:10;6.82;;;5.53;;
4078;SDS011;2054;47.858;11.156;2023-06-10T10:06:37;6.22;;;5.63;;
4078;SDS011;2054;47.858;11.156;2023-06-10T10:09:05;6.40;;;5.80;;
4078;SDS011;2054;47.858;11.156;2023-06-10T10:11:33;8.57;;;5.85;;
4078;SDS011;2054;47.858;11.156;2023-06-10T10:14:03;7.22;;;6.25;;
4078;SDS011;2054;47.858;11.156;2023-06-10T10:16:33;7.13;;;6.40;;
4078;SDS011;2054;47.858;11.156;2023-06-10T10:19:08;7.97;;;6.05;;
4078;SDS011;2054;47.858;11.156;2023-06-10T10:21:38;6.15;;;5.55;;
4078;SDS011;2054;47.858;11.156;2023-06-10T10:24:08;7.15;;;6.45;;
4078;SDS011;2054;47.858;11.156;2023-06-10T10:26:36;6.28;;;5.65;;
4078;SDS011;2054;47.858;11.156;2023-06-10T10:29:07;6.60;;;5.90;;
4078;SDS011;2054;47.858;11.156;2023-06-10T10:31:35;6.20;;;5.60;;
4078;SDS011;2054;47.858;11.156;2023-06-10T10:34:04;5.78;;;5.18;;
4078;SDS011;2054;47.858;11.156;2023-06-10T10:36:33;5.85;;;5.30;;
4078;SDS011;2054;47.858;11.156;2023-06-10T10:39:01;6.38;;;5.65;;
4078;SDS011;2054;47.858;11.156;2023-06-10T10:41:29;6.50;;;5.80;;
4078;SDS011;2054;47.858;11.156;2023-06-10T10:43:57;7.90;;;5.38;;
4078;SDS011;2054;47.858;11.156;2023-06-10T10:46:27;7.05;;;5.28;;
4078;SDS011;2054;47.858;11.156;2023-06-10T10:48:54;5.72;;;5.13;;
4078;SDS011;2054;47.858;11.156;2023-06-10T10:51:22;5.90;;;5.30;;
4078;SDS011;2054;47.858;11.156;2023-06-10T10:56:36;5.78;;;5.07;;
4078;SDS011;2054;47.858;11.156;2023-06-10T10:59:03;6.68;;;5.55;;
4078;SDS011;2054;47.858;11.156;2023-06-10T11:01:40;5.93;;;5.43;;
4078;SDS011;2054;47.858;11.156;2023-06-10T11:04:11;5.78;;;5.07;;
4078;SDS011;2054;47.858;11.156;2023-06-10T11:06:38;7.28;;;5.45;;
4078;SDS011;2054;47.858;11.156;2023-06-10T11:11:48;5.45;;;4.95;;
4078;SDS011;2054;47.858;11.156;2023-06-10T11:14:17;5.30;;;4.80;;
4078;SDS011;2054;47.858;11.156;2023-06-10T11:16:54;5.63;;;5.13;;
4078;SDS011;2054;47.858;11.156;2023-06-10T11:19:32;6.30;;;5.45;;
4078;SDS011;2054;47.858;11.156;2023-06-10T11:22:03;6.97;;;5.93;;
4078;SDS011;2054;47.858;11.156;2023-06-10T11:24:30;6.32;;;5.50;;
4078;SDS011;2054;47.858;11.156;2023-06-10T11:29:56;6.43;;;5.82;;
4078;SDS011;2054;47.858;11.156;2023-06-10T11:32:25;6.82;;;5.97;;
4078;SDS011;2054;47.858;11.156;2023-06-10T11:34:56;5.88;;;5.38;;
4078;SDS011;2054;47.858;11.156;2023-06-10T11:37:23;4.80;;;4.40;;
4078;SDS011;2054;47.858;11.156;2023-06-10T11:39:51;5.13;;;4.72;;
4078;SDS011;2054;47.858;11.156;2023-06-10T11:42:18;5.72;;;5.18;;
4078;SDS011;2054;47.858;11.156;2023-06-10T11:44:49;4.93;;;4.28;;
4078;SDS011;2054;47.858;11.156;2023-06-10T11:47:17;5.13;;;4.63;;
4078;SDS011;2054;47.858;11.156;2023-06-10T11:49:49;5.35;;;4.80;;
4078;SDS011;2054;47.858;11.156;2023-06-10T11:52:25;7.20;;;5.47;;
4078;SDS011;2054;47.858;11.156;2023-06-10T11:54:53;5.55;;;5.05;;
4078;SDS011;2054;47.858;11.156;2023-06-10T11:57:21;6.03;;;5.50;;
4078;SDS011;2054;47.858;11.156;2023-06-10T11:59:48;6.18;;;5.20;;
4078;SDS011;2054;47.858;11.156;2023-06-10T12:02:15;5.60;;;5.10;;
4078;SDS011;2054;47.858;11.156;2023-06-10T12:04:45;5.60;;;5.10;;
4078;SDS011;2054;47.858;11.156;2023-06-10T12:07:16;5.63;;;5.13;;
4078;SDS011;2054;47.858;11.156;2023-06-10T12:09:44;5.50;;;5.00;;
4078;SDS011;2054;47.858;11.156;2023-06-10T12:12:11;7.05;;;5.53;;
4078;SDS011;2054;47.858;11.156;2023-06-10T12:14:52;5.68;;;4.68;;
4078;SDS011;2054;47.858;11.156;2023-06-10T12:17:20;5.47;;;4.82;;
4078;SDS011;2054;47.858;11.156;2023-06-10T12:19:49;5.07;;;4.65;;
4078;SDS011;2054;47.858;11.156;2023-06-10T12:22:16;5.72;;;5.22;;
4078;SDS011;2054;47.858;11.156;2023-06-10T12:24:45;5.50;;;5.00;;
4078;SDS011;2054;47.858;11.156;2023-06-10T12:27:13;5.13;;;4.60;;
4078;SDS011;2054;47.858;11.156;2023-06-10T12:29:50;5.95;;;5.28;;
4078;SDS011;2054;47.858;11.156;2023-06-10T12:32:18;4.80;;;4.28;;
4078;SDS011;2054;47.858;11.156;2023-06-10T12:34:48;4.80;;;4.22;;
4078;SDS011;2054;47.858;11.156;2023-06-10T12:37:17;5.60;;;4.82;;
4078;SDS011;2054;47.858;11.156;2023-06-10T12:39:51;4.75;;;4.35;;
4078;SDS011;2054;47.858;11.156;2023-06-10T12:42:21;4.78;;;4.38;;
4078;SDS011;2054;47.858;11.156;2023-06-10T12:44:52;5.25;;;4.85;;
4078;SDS011;2054;47.858;11.156;2023-06-10T12:47:28;5.22;;;4.55;;
4078;SDS011;2054;47.858;11.156;2023-06-10T12:49:57;4.82;;;4.30;;
4078;SDS011;2054;47.858;11.156;2023-06-10T12:52:26;4.68;;;4.28;;
4078;SDS011;2054;47.858;11.156;2023-06-10T12:54:54;4.97;;;3.88;;
4078;SDS011;2054;47.858;11.156;2023-06-10T12:57:22;5.65;;;4.40;;
4078;SDS011;2054;47.858;11.156;2023-06-10T12:59:50;4.85;;;4.45;;
4078;SDS011;2054;47.858;11.156;2023-06-10T13:02:18;5.43;;;5.00;;
4078;SDS011;2054;47.858;11.156;2023-06-10T13:04:46;4.65;;;4.25;;
4078;SDS011;2054;47.858;11.156;2023-06-10T13:07:13;4.70;;;4.30;;
4078;SDS011;2054;47.858;11.156;2023-06-10T13:09:42;4.85;;;4.45;;
4078;SDS011;2054;47.858;11.156;2023-06-10T13:12:09;5.68;;;4.18;;
4078;SDS011;2054;47.858;11.156;2023-06-10T13:14:37;5.05;;;4.15;;
4078;SDS011;2054;47.858;11.156;2023-06-10T13:17:04;4.57;;;4.18;;
4078;SDS011;2054;47.858;11.156;2023-06-10T13:19:32;4.78;;;4.35;;
4078;SDS011;2054;47.858;11.156;2023-06-10T13:22:00;4.43;;;4.03;;
4078;SDS011;2054;47.858;11.156;2023-06-10T13:24:28;6.63;;;4.00;;
4078;SDS011;2054;47.858;11.156;2023-06-10T13:26:56;4.45;;;4.05;;
4078;SDS011;2054;47.858;11.156;2023-06-10T13:29:23;4.63;;;4.22;;
4078;SDS011;2054;47.858;11.156;2023-06-10T13:31:51;4.60;;;4.20;;
4078;SDS011;2054;47.858;11.156;2023-06-10T13:34:18;4.63;;;4.15;;
4078;SDS011;2054;47.858;11.156;2023-06-10T13:36:45;4.50;;;4.10;;
4078;SDS011;2054;47.858;11.156;2023-06-10T13:39:13;4.57;;;4.18;;
4078;SDS011;2054;47.858;11.156;2023-06-10T13:41:40;5.45;;;4.80;;
4078;SDS011;2054;47.858;11.156;2023-06-10T13:44:09;4.68;;;4.25;;
4078;SDS011;2054;47.858;11.156;2023-06-10T13:46:36;4.50;;;4.10;;
4078;SDS011;2054;47.858;11.156;2023-06-10T13:49:04;4.63;;;4.22;;
4078;SDS011;2054;47.858;11.156;2023-06-10T13:51:31;4.63;;;4.22;;
4078;SDS011;2054;47.858;11.156;2023-06-10T13:53:59;5.07;;;4.03;;
4078;SDS011;2054;47.858;11.156;2023-06-10T13:56:26;4.63;;;4.13;;
4078;SDS011;2054;47.858;11.156;2023-06-10T13:58:53;4.90;;;3.90;;
4078;SDS011;2054;47.858;11.156;2023-06-10T14:01:22;4.20;;;3.80;;
4078;SDS011;2054;47.858;11.156;2023-06-10T14:03:50;4.75;;;4.15;;
4078;SDS011;2054;47.858;11.156;2023-06-10T14:06:18;4.15;;;3.67;;
4078;SDS011;2054;47.858;11.156;2023-06-10T14:08:46;8.75;;;3.42;;
4078;SDS011;2054;47.858;11.156;2023-06-10T14:11:13;4.95;;;3.63;;
4078;SDS011;2054;47.858;11.156;2023-06-10T14:13:41;4.22;;;3.83;;
4078;SDS011;2054;47.858;11.156;2023-06-10T14:16:08;4.18;;;3.78;;
4078;SDS011;2054;47.858;11.156;2023-06-10T14:18:36;3.92;;;3.63;;
4078;SDS011;2054;47.858;11.156;2023-06-10T14:21:04;4.20;;;3.83;;
4078;SDS011;2054;47.858;11.156;2023-06-10T14:23:31;3.78;;;3.47;;
4078;SDS011;2054;47.858;11.156;2023-06-10T14:25:58;3.90;;;3.55;;
4078;SDS011;2054;47.858;11.156;2023-06-10T14:28:27;3.47;;;3.10;;
4078;SDS011;2054;47.858;11.156;2023-06-10T14:30:54;3.90;;;3.53;;
4078;SDS011;2054;47.858;11.156;2023-06-10T14:33:22;3.58;;;3.28;;
4078;SDS011;2054;47.858;11.156;2023-06-10T14:35:51;3.70;;;3.30;;
4078;SDS011;2054;47.858;11.156;2023-06-10T14:38:18;3.60;;;3.25;;
4078;SDS011;2054;47.858;11.156;2023-06-10T14:40:46;4.07;;;3.45;;
4078;SDS011;2054;47.858;11.156;2023-06-10T14:43:13;3.92;;;3.30;;
4078;SDS011;2054;47.858;11.156;2023-06-10T14:45:41;3.80;;;3.50;;
4078;SDS011;2054;47.858;11.156;2023-06-10T14:48:08;3.90;;;3.60;;
4078;SDS011;2054;47.858;11.156;2023-06-10T14:50:36;3.88;;;3.30;;
4078;SDS011;2054;47.858;11.156;2023-06-10T14:53:07;4.13;;;3.70;;
4078;SDS011;2054;47.858;11.156;2023-06-10T14:55:34;3.42;;;3.20;;
4078;SDS011;2054;47.858;11.156;2023-06-10T14:58:01;3.80;;;3.50;;
4078;SDS011;2054;47.858;11.156;2023-06-10T15:00:29;3.60;;;3.30;;
4078;SDS011;2054;47.858;11.156;2023-06-10T15:02:56;3.95;;;3.50;;
4078;SDS011;2054;47.858;11.156;2023-06-10T15:05:23;4.25;;;3.33;;
4078;SDS011;2054;47.858;11.156;2023-06-10T15:07:51;4.45;;;3.30;;
4078;SDS011;2054;47.858;11.156;2023-06-10T15:10:20;3.90;;;3.50;;
4078;SDS011;2054;47.858;11.156;2023-06-10T15:12:47;4.75;;;3.78;;
4078;SDS011;2054;47.858;11.156;2023-06-10T15:15:20;4.45;;;3.80;;
4078;SDS011;2054;47.858;11.156;2023-06-10T15:17:48;7.55;;;3.95;;
4078;SDS011;2054;47.858;11.156;2023-06-10T15:20:15;5.97;;;4.35;;
4078;SDS011;2054;47.858;11.156;2023-06-10T15:22:42;4.50;;;4.10;;
4078;SDS011;2054;47.858;11.156;2023-06-10T15:25:09;4.82;;;4.25;;
4078;SDS011;2054;47.858;11.156;2023-06-10T15:27:38;5.18;;;4.68;;
4078;SDS011;2054;47.858;11.156;2023-06-10T15:30:06;4.55;;;4.03;;
4078;SDS011;2054;47.858;11.156;2023-06-10T15:32:33;4.47;;;4.00;;
4078;SDS011;2054;47.858;11.156;2023-06-10T15:35:01;5.45;;;4.20;;
4078;SDS011;2054;47.858;11.156;2023-06-10T15:37:28;6.13;;;3.90;;
4078;SDS011;2054;47.858;11.156;2023-06-10T15:39:55;5.05;;;4.30;;
4078;SDS011;2054;47.858;11.156;2023-06-10T15:42:23;3.90;;;3.60;;
4078;SDS011;2054;47.858;11.156;2023-06-10T15:44:52;4.70;;;4.15;;
4078;SDS011;2054;47.858;11.156;2023-06-10T15:47:19;3.92;;;3.55;;
4078;SDS011;2054;47.858;11.156;2023-06-10T15:49:46;4.90;;;4.05;;
4078;SDS011;2054;47.858;11.156;2023-06-10T15:52:14;4.40;;;3.67;;
4078;SDS011;2054;47.858;11.156;2023-06-10T15:54:41;4.40;;;4.00;;
4078;SDS011;2054;47.858;11.156;2023-06-10T15:57:08;4.22;;;3.83;;
4078;SDS011;2054;47.858;11.156;2023-06-10T15:59:35;4.40;;;4.00;;
4078;SDS011;2054;47.858;11.156;2023-06-10T16:02:05;4.10;;;3.47;;
4078;SDS011;2054;47.858;11.156;2023-06-10T16:04:32;5.60;;;3.92;;
4078;SDS011;2054;47.858;11.156;2023-06-10T16:06:59;4.88;;;4.03;;
4078;SDS011;2054;47.858;11.156;2023-06-10T16:09:27;7.85;;;7.05;;
4078;SDS011;2054;47.858;11.156;2023-06-10T16:11:54;6.70;;;5.95;;
4078;SDS011;2054;47.858;11.156;2023-06-10T16:14:21;4.82;;;3.47;;
4078;SDS011;2054;47.858;11.156;2023-06-10T16:16:49;6.00;;;4.72;;
4078;SDS011;2054;47.858;11.156;2023-06-10T16:19:17;4.30;;;3.90;;
4078;SDS011;2054;47.858;11.156;2023-06-10T16:21:45;4.30;;;3.90;;
4078;SDS011;2054;47.858;11.156;2023-06-10T16:24:12;6.15;;;4.45;;
4078;SDS011;2054;47.858;11.156;2023-06-10T16:26:40;4.13;;;3.80;;
4078;SDS011;2054;47.858;11.156;2023-06-10T16:29:07;4.40;;;3.50;;
4078;SDS011;2054;47.858;11.156;2023-06-10T16:31:35;4.25;;;3.13;;
4078;SDS011;2054;47.858;11.156;2023-06-10T16:34:03;4.15;;;3.40;;
4078;SDS011;2054;47.858;11.156;2023-06-10T16:36:32;3.80;;;3.50;;
4078;SDS011;2054;47.858;11.156;2023-06-10T16:38:59;3.50;;;3.20;;
4078;SDS011;2054;47.858;11.156;2023-06-10T16:41:27;5.32;;;3.75;;
4078;SDS011;2054;47.858;11.156;2023-06-10T16:43:57;3.92;;;3.63;;
4078;SDS011;2054;47.858;11.156;2023-06-10T16:46:24;3.78;;;3.20;;
4078;SDS011;2054;47.858;11.156;2023-06-10T16:48:53;4.88;;;3.80;;
4078;SDS011;2054;47.858;11.156;2023-06-10T16:51:20;20.58;;;12.18;;
4078;SDS011;2054;47.858;11.156;2023-06-10T16:53:49;4.00;;;3.60;;
4078;SDS011;2054;47.858;11.156;2023-06-10T16:56:16;4.78;;;3.97;;
4078;SDS011;2054;47.858;11.156;2023-06-10T16:58:43;4.55;;;4.10;;
4078;SDS011;2054;47.858;11.156;2023-06-10T17:01:11;4.57;;;3.47;;
4078;SDS011;2054;47.858;11.156;2023-06-10T17:03:38;7.35;;;6.65;;
4078;SDS011;2054;47.858;11.156;2023-06-10T17:06:05;4.75;;;3.63;;
4078;SDS011;2054;47.858;11.156;2023-06-10T17:08:33;4.22;;;3.92;;
4078;SDS011;2054;47.858;11.156;2023-06-10T17:11:01;4.35;;;3.95;;
4078;SDS011;2054;47.858;11.156;2023-06-10T17:13:29;4.20;;;3.70;;
4078;SDS011;2054;47.858;11.156;2023-06-10T17:15:56;4.25;;;3.85;;
4078;SDS011;2054;47.858;11.156;2023-06-10T17:18:23;5.30;;;4.28;;
4078;SDS011;2054;47.858;11.156;2023-06-10T17:20:51;5.22;;;4.20;;
4078;SDS011;2054;47.858;11.156;2023-06-10T17:23:18;4.35;;;3.95;;
4078;SDS011;2054;47.858;11.156;2023-06-10T17:25:45;4.85;;;3.80;;
4078;SDS011;2054;47.858;11.156;2023-06-10T17:28:16;4.03;;;3.72;;
4078;SDS011;2054;47.858;11.156;2023-06-10T17:30:44;4.13;;;3.72;;
4078;SDS011;2054;47.858;11.156;2023-06-10T17:33:12;4.38;;;3.97;;
4078;SDS011;2054;47.858;11.156;2023-06-10T17:35:40;4.88;;;4.47;;
4078;SDS011;2054;47.858;11.156;2023-06-10T17:38:07;4.35;;;3.95;;
4078;SDS011;2054;47.858;11.156;2023-06-10T17:40:34;4.63;;;4.22;;
4078;SDS011;2054;47.858;11.156;2023-06-10T17:43:01;5.60;;;5.10;;
4078;SDS011;2054;47.858;11.156;2023-06-10T17:45:30;6.05;;;5.18;;
4078;SDS011;2054;47.858;11.156;2023-06-10T17:47:57;6.28;;;5.68;;
4078;SDS011;2054;47.858;11.156;2023-06-10T17:50:24;6.78;;;6.10;;
4078;SDS011;2054;47.858;11.156;2023-06-10T17:52:53;7.25;;;5.65;;
4078;SDS011;2054;47.858;11.156;2023-06-10T17:55:20;5.97;;;5.40;;